sensor_id;sensor_type;location;lat;lon;timestamp;P1;durP1;ratioP1;P2;durP2;ratioP2
6739;SDS011;3407;49.882;10.920;2023-04-24T00:03:47;2.27;;;2.10;;
6739;SDS011;3407;49.882;10.920;2023-04-24T00:08:43;2.97;;;2.37;;
6739;SDS011;3407;49.882;10.920;2023-04-24T00:13:38;1.90;;;1.80;;
6739;SDS011;3407;49.882;10.920;2023-04-24T00:18:34;1.97;;;1.87;;
6739;SDS011;3407;49.882;10.920;2023-04-24T00:23:30;2.37;;;2.17;;
6739;SDS011;3407;49.882;10.920;2023-04-24T00:28:25;3.80;;;2.20;;
6739;SDS011;3407;49.882;10.920;2023-04-24T00:33:21;2.50;;;1.70;;
6739;SDS011;3407;49.882;10.920;2023-04-24T00:38:16;2.23;;;2.00;;
6739;SDS011;3407;49.882;10.920;2023-04-24T00:43:12;2.00;;;1.90;;
6739;SDS011;3407;49.882;10.920;2023-04-24T00:48:08;1.67;;;1.57;;
6739;SDS011;3407;49.882;10.920;2023-04-24T00:53:03;2.27;;;1.60;;
6739;SDS011;3407;49.882;10.920;2023-04-24T00:57:59;1.80;;;1.60;;
6739;SDS011;3407;49.882;10.920;2023-04-24T01:02:55;3.30;;;1.80;;
6739;SDS011;3407;49.882;10.920;2023-04-24T01:07:52;1.80;;;1.70;;
6739;SDS011;3407;49.882;10.920;2023-04-24T01:12:48;5.23;;;1.73;;
6739;SDS011;3407;49.882;10.920;2023-04-24T01:17:43;3.03;;;2.13;;
6739;SDS011;3407;49.882;10.920;2023-04-24T01:22:40;2.27;;;1.87;;
6739;SDS011;3407;49.882;10.920;2023-04-24T01:27:36;1.90;;;1.80;;
6739;SDS011;3407;49.882;10.920;2023-04-24T01:32:31;3.73;;;2.03;;
6739;SDS011;3407;49.882;10.920;2023-04-24T01:37:27;1.90;;;1.80;;
6739;SDS011;3407;49.882;10.920;2023-04-24T01:42:23;1.83;;;1.73;;
6739;SDS011;3407;49.882;10.920;2023-04-24T01:47:19;2.17;;;1.97;;
6739;SDS011;3407;49.882;10.920;2023-04-24T01:52:14;2.27;;;2.00;;
6739;SDS011;3407;49.882;10.920;2023-04-24T01:57:11;4.30;;;2.20;;
6739;SDS011;3407;49.882;10.920;2023-04-24T02:02:07;2.07;;;1.87;;
6739;SDS011;3407;49.882;10.920;2023-04-24T02:07:02;3.90;;;2.33;;
6739;SDS011;3407;49.882;10.920;2023-04-24T02:11:58;2.10;;;2.00;;
6739;SDS011;3407;49.882;10.920;2023-04-24T02:16:53;2.27;;;2.10;;
6739;SDS011;3407;49.882;10.920;2023-04-24T02:21:49;3.23;;;2.30;;
6739;SDS011;3407;49.882;10.920;2023-04-24T02:26:45;3.97;;;2.17;;
6739;SDS011;3407;49.882;10.920;2023-04-24T02:31:40;2.60;;;2.40;;
6739;SDS011;3407;49.882;10.920;2023-04-24T02:36:36;4.10;;;2.87;;
6739;SDS011;3407;49.882;10.920;2023-04-24T02:41:38;2.40;;;2.20;;
6739;SDS011;3407;49.882;10.920;2023-04-24T02:46:33;2.50;;;2.30;;
6739;SDS011;3407;49.882;10.920;2023-04-24T02:51:29;2.37;;;2.17;;
6739;SDS011;3407;49.882;10.920;2023-04-24T02:56:25;2.80;;;1.90;;
6739;SDS011;3407;49.882;10.920;2023-04-24T03:01:21;3.13;;;1.87;;
6739;SDS011;3407;49.882;10.920;2023-04-24T03:06:16;5.80;;;2.50;;
6739;SDS011;3407;49.882;10.920;2023-04-24T03:11:12;1.80;;;1.70;;
6739;SDS011;3407;49.882;10.920;2023-04-24T03:16:07;2.77;;;2.00;;
6739;SDS011;3407;49.882;10.920;2023-04-24T03:21:03;1.87;;;1.77;;
6739;SDS011;3407;49.882;10.920;2023-04-24T03:25:58;1.27;;;1.27;;
6739;SDS011;3407;49.882;10.920;2023-04-24T03:30:54;2.57;;;1.87;;
6739;SDS011;3407;49.882;10.920;2023-04-24T03:35:50;3.40;;;1.40;;
6739;SDS011;3407;49.882;10.920;2023-04-24T03:40:45;2.17;;;1.50;;
6739;SDS011;3407;49.882;10.920;2023-04-24T03:45:41;1.50;;;1.40;;
6739;SDS011;3407;49.882;10.920;2023-04-24T03:50:36;1.50;;;1.40;;
6739;SDS011;3407;49.882;10.920;2023-04-24T03:55:32;1.63;;;1.53;;
6739;SDS011;3407;49.882;10.920;2023-04-24T04:00:27;2.20;;;2.00;;
6739;SDS011;3407;49.882;10.920;2023-04-24T04:05:23;2.13;;;1.90;;
6739;SDS011;3407;49.882;10.920;2023-04-24T04:10:19;2.33;;;1.80;;
6739;SDS011;3407;49.882;10.920;2023-04-24T04:15:14;2.70;;;2.20;;
6739;SDS011;3407;49.882;10.920;2023-04-24T04:20:10;2.77;;;2.10;;
6739;SDS011;3407;49.882;10.920;2023-04-24T04:25:06;4.33;;;1.80;;
6739;SDS011;3407;49.882;10.920;2023-04-24T04:30:03;2.13;;;2.00;;
6739;SDS011;3407;49.882;10.920;2023-04-24T04:35:02;4.00;;;2.00;;
6739;SDS011;3407;49.882;10.920;2023-04-24T04:39:58;1.67;;;1.57;;
6739;SDS011;3407;49.882;10.920;2023-04-24T04:44:53;2.17;;;1.53;;
6739;SDS011;3407;49.882;10.920;2023-04-24T04:49:49;1.93;;;1.83;;
6739;SDS011;3407;49.882;10.920;2023-04-24T04:54:46;1.70;;;1.60;;
6739;SDS011;3407;49.882;10.920;2023-04-24T04:59:42;2.23;;;1.70;;
6739;SDS011;3407;49.882;10.920;2023-04-24T05:04:37;2.40;;;1.80;;
6739;SDS011;3407;49.882;10.920;2023-04-24T05:09:33;2.67;;;1.90;;
6739;SDS011;3407;49.882;10.920;2023-04-24T05:14:28;4.87;;;2.10;;
6739;SDS011;3407;49.882;10.920;2023-04-24T05:19:24;2.20;;;2.07;;
6739;SDS011;3407;49.882;10.920;2023-04-24T05:24:19;3.93;;;1.90;;
6739;SDS011;3407;49.882;10.920;2023-04-24T05:29:15;1.80;;;1.70;;
6739;SDS011;3407;49.882;10.920;2023-04-24T05:34:10;2.50;;;2.30;;
6739;SDS011;3407;49.882;10.920;2023-04-24T05:39:06;3.10;;;1.90;;
6739;SDS011;3407;49.882;10.920;2023-04-24T05:44:03;1.90;;;1.80;;
6739;SDS011;3407;49.882;10.920;2023-04-24T05:48:58;2.90;;;1.80;;
6739;SDS011;3407;49.882;10.920;2023-04-24T05:53:54;2.67;;;1.57;;
6739;SDS011;3407;49.882;10.920;2023-04-24T05:58:49;4.60;;;3.57;;
6739;SDS011;3407;49.882;10.920;2023-04-24T06:03:45;3.00;;;2.20;;
6739;SDS011;3407;49.882;10.920;2023-04-24T06:08:40;6.20;;;3.40;;
6739;SDS011;3407;49.882;10.920;2023-04-24T06:13:37;1.90;;;1.70;;
6739;SDS011;3407;49.882;10.920;2023-04-24T06:18:33;1.43;;;1.33;;
6739;SDS011;3407;49.882;10.920;2023-04-24T06:23:28;1.50;;;1.43;;
6739;SDS011;3407;49.882;10.920;2023-04-24T06:28:27;2.07;;;1.67;;
6739;SDS011;3407;49.882;10.920;2023-04-24T06:33:22;1.53;;;1.43;;
6739;SDS011;3407;49.882;10.920;2023-04-24T06:38:18;7.10;;;2.10;;
6739;SDS011;3407;49.882;10.920;2023-04-24T06:43:13;2.87;;;1.70;;
6739;SDS011;3407;49.882;10.920;2023-04-24T06:48:09;2.23;;;1.27;;
6739;SDS011;3407;49.882;10.920;2023-04-24T06:53:05;2.00;;;1.30;;
6739;SDS011;3407;49.882;10.920;2023-04-24T06:58:00;1.10;;;1.10;;
6739;SDS011;3407;49.882;10.920;2023-04-24T07:02:56;3.97;;;3.57;;
6739;SDS011;3407;49.882;10.920;2023-04-24T07:07:52;3.63;;;3.23;;
6739;SDS011;3407;49.882;10.920;2023-04-24T07:12:48;1.60;;;1.50;;
6739;SDS011;3407;49.882;10.920;2023-04-24T07:17:43;1.30;;;1.20;;
6739;SDS011;3407;49.882;10.920;2023-04-24T07:22:39;1.27;;;1.00;;
6739;SDS011;3407;49.882;10.920;2023-04-24T07:27:35;1.30;;;1.23;;
6739;SDS011;3407;49.882;10.920;2023-04-24T07:32:31;2.60;;;1.20;;
6739;SDS011;3407;49.882;10.920;2023-04-24T07:37:26;1.47;;;1.20;;
6739;SDS011;3407;49.882;10.920;2023-04-24T07:42:23;2.93;;;1.20;;
6739;SDS011;3407;49.882;10.920;2023-04-24T07:47:19;1.70;;;1.30;;
6739;SDS011;3407;49.882;10.920;2023-04-24T07:52:14;1.43;;;1.20;;
6739;SDS011;3407;49.882;10.920;2023-04-24T07:57:10;1.27;;;1.10;;
6739;SDS011;3407;49.882;10.920;2023-04-24T08:02:05;1.73;;;1.17;;
6739;SDS011;3407;49.882;10.920;2023-04-24T08:07:01;1.20;;;1.10;;
6739;SDS011;3407;49.882;10.920;2023-04-24T08:11:56;1.73;;;1.03;;
6739;SDS011;3407;49.882;10.920;2023-04-24T08:16:53;1.40;;;1.30;;
6739;SDS011;3407;49.882;10.920;2023-04-24T08:21:50;1.20;;;1.10;;
6739;SDS011;3407;49.882;10.920;2023-04-24T08:26:46;0.90;;;0.90;;
6739;SDS011;3407;49.882;10.920;2023-04-24T08:31:45;1.53;;;1.20;;
6739;SDS011;3407;49.882;10.920;2023-04-24T08:36:40;1.63;;;1.27;;
6739;SDS011;3407;49.882;10.920;2023-04-24T08:41:36;2.67;;;1.30;;
6739;SDS011;3407;49.882;10.920;2023-04-24T08:46:32;2.00;;;1.50;;
6739;SDS011;3407;49.882;10.920;2023-04-24T08:51:28;1.40;;;1.30;;
6739;SDS011;3407;49.882;10.920;2023-04-24T08:56:25;1.50;;;1.40;;
6739;SDS011;3407;49.882;10.920;2023-04-24T09:01:23;2.03;;;1.50;;
6739;SDS011;3407;49.882;10.920;2023-04-24T09:06:19;1.60;;;1.50;;
6739;SDS011;3407;49.882;10.920;2023-04-24T09:11:16;1.60;;;1.50;;
6739;SDS011;3407;49.882;10.920;2023-04-24T09:16:13;1.50;;;1.40;;
6739;SDS011;3407;49.882;10.920;2023-04-24T09:21:09;1.60;;;1.50;;
6739;SDS011;3407;49.882;10.920;2023-04-24T09:26:05;1.33;;;1.30;;
6739;SDS011;3407;49.882;10.920;2023-04-24T09:31:11;1.20;;;1.20;;
6739;SDS011;3407;49.882;10.920;2023-04-24T09:36:09;1.63;;;1.40;;
6739;SDS011;3407;49.882;10.920;2023-04-24T09:41:06;1.40;;;1.40;;
6739;SDS011;3407;49.882;10.920;2023-04-24T09:46:06;2.43;;;1.73;;
6739;SDS011;3407;49.882;10.920;2023-04-24T09:51:04;1.63;;;1.53;;
6739;SDS011;3407;49.882;10.920;2023-04-24T09:56:09;1.80;;;1.53;;
6739;SDS011;3407;49.882;10.920;2023-04-24T10:01:05;1.63;;;1.53;;
6739;SDS011;3407;49.882;10.920;2023-04-24T10:06:01;1.27;;;1.27;;
6739;SDS011;3407;49.882;10.920;2023-04-24T10:11:03;1.63;;;1.53;;
6739;SDS011;3407;49.882;10.920;2023-04-24T10:15:59;2.70;;;2.13;;
6739;SDS011;3407;49.882;10.920;2023-04-24T10:20:55;3.17;;;1.70;;
6739;SDS011;3407;49.882;10.920;2023-04-24T10:25:52;2.17;;;1.70;;
6739;SDS011;3407;49.882;10.920;2023-04-24T10:30:48;1.37;;;1.30;;
6739;SDS011;3407;49.882;10.920;2023-04-24T10:35:45;1.00;;;1.00;;
6739;SDS011;3407;49.882;10.920;2023-04-24T10:40:43;2.50;;;1.20;;
6739;SDS011;3407;49.882;10.920;2023-04-24T10:45:39;1.00;;;1.00;;
6739;SDS011;3407;49.882;10.920;2023-04-24T10:50:45;1.17;;;1.07;;
6739;SDS011;3407;49.882;10.920;2023-04-24T10:55:43;1.10;;;1.10;;
6739;SDS011;3407;49.882;10.920;2023-04-24T11:00:43;0.90;;;0.90;;
6739;SDS011;3407;49.882;10.920;2023-04-24T11:05:56;0.90;;;0.90;;
6739;SDS011;3407;49.882;10.920;2023-04-24T11:10:54;1.00;;;1.00;;
6739;SDS011;3407;49.882;10.920;2023-04-24T11:16:13;2.83;;;1.70;;
6739;SDS011;3407;49.882;10.920;2023-04-24T11:21:11;1.60;;;1.47;;
6739;SDS011;3407;49.882;10.920;2023-04-24T11:26:11;0.90;;;0.90;;
6739;SDS011;3407;49.882;10.920;2023-04-24T11:36:45;2.27;;;1.60;;
6739;SDS011;3407;49.882;10.920;2023-04-24T11:41:42;3.07;;;1.53;;
6739;SDS011;3407;49.882;10.920;2023-04-24T11:46:38;1.00;;;1.00;;
6739;SDS011;3407;49.882;10.920;2023-04-24T11:51:34;3.60;;;1.10;;
6739;SDS011;3407;49.882;10.920;2023-04-24T11:56:30;1.00;;;1.00;;
6739;SDS011;3407;49.882;10.920;2023-04-24T12:01:25;1.60;;;1.50;;
6739;SDS011;3407;49.882;10.920;2023-04-24T12:06:21;1.90;;;1.33;;
6739;SDS011;3407;49.882;10.920;2023-04-24T12:11:16;1.77;;;1.57;;
6739;SDS011;3407;49.882;10.920;2023-04-24T12:16:13;5.03;;;1.70;;
6739;SDS011;3407;49.882;10.920;2023-04-24T12:26:18;1.90;;;1.70;;
6739;SDS011;3407;49.882;10.920;2023-04-24T12:31:14;2.00;;;1.90;;
6739;SDS011;3407;49.882;10.920;2023-04-24T12:36:11;1.97;;;1.73;;
6739;SDS011;3407;49.882;10.920;2023-04-24T12:41:08;1.33;;;1.30;;
6739;SDS011;3407;49.882;10.920;2023-04-24T12:46:04;1.60;;;1.50;;
6739;SDS011;3407;49.882;10.920;2023-04-24T12:51:00;2.33;;;1.47;;
6739;SDS011;3407;49.882;10.920;2023-04-24T12:55:56;1.50;;;1.40;;
6739;SDS011;3407;49.882;10.920;2023-04-24T13:00:52;2.10;;;1.63;;
6739;SDS011;3407;49.882;10.920;2023-04-24T13:05:47;2.10;;;1.30;;
6739;SDS011;3407;49.882;10.920;2023-04-24T13:10:43;1.47;;;1.37;;
6739;SDS011;3407;49.882;10.920;2023-04-24T13:15:38;2.10;;;1.40;;
6739;SDS011;3407;49.882;10.920;2023-04-24T13:20:34;1.80;;;1.70;;
6739;SDS011;3407;49.882;10.920;2023-04-24T13:25:34;1.80;;;1.00;;
6739;SDS011;3407;49.882;10.920;2023-04-24T13:30:32;1.27;;;1.00;;
6739;SDS011;3407;49.882;10.920;2023-04-24T13:35:27;1.23;;;1.13;;
6739;SDS011;3407;49.882;10.920;2023-04-24T13:40:23;0.80;;;0.80;;
6739;SDS011;3407;49.882;10.920;2023-04-24T13:45:18;1.90;;;1.20;;
6739;SDS011;3407;49.882;10.920;2023-04-24T13:50:15;1.73;;;1.00;;
6739;SDS011;3407;49.882;10.920;2023-04-24T13:55:11;1.10;;;1.00;;
6739;SDS011;3407;49.882;10.920;2023-04-24T14:00:06;1.40;;;1.23;;
6739;SDS011;3407;49.882;10.920;2023-04-24T14:05:05;1.40;;;1.30;;
6739;SDS011;3407;49.882;10.920;2023-04-24T14:10:01;1.77;;;1.60;;
6739;SDS011;3407;49.882;10.920;2023-04-24T14:14:57;5.37;;;3.60;;
6739;SDS011;3407;49.882;10.920;2023-04-24T14:19:52;2.30;;;1.73;;
6739;SDS011;3407;49.882;10.920;2023-04-24T14:24:51;2.10;;;2.00;;
6739;SDS011;3407;49.882;10.920;2023-04-24T14:29:46;1.93;;;1.83;;
6739;SDS011;3407;49.882;10.920;2023-04-24T14:34:42;1.90;;;1.80;;
6739;SDS011;3407;49.882;10.920;2023-04-24T14:39:37;1.93;;;1.83;;
6739;SDS011;3407;49.882;10.920;2023-04-24T14:44:33;2.73;;;2.53;;
6739;SDS011;3407;49.882;10.920;2023-04-24T14:49:28;2.20;;;2.10;;
6739;SDS011;3407;49.882;10.920;2023-04-24T14:54:24;3.30;;;2.20;;
6739;SDS011;3407;49.882;10.920;2023-04-24T14:59:20;2.17;;;2.07;;
6739;SDS011;3407;49.882;10.920;2023-04-24T15:04:15;2.40;;;2.10;;
6739;SDS011;3407;49.882;10.920;2023-04-24T15:09:11;2.13;;;2.00;;
6739;SDS011;3407;49.882;10.920;2023-04-24T15:14:06;2.17;;;1.97;;
6739;SDS011;3407;49.882;10.920;2023-04-24T15:19:02;2.17;;;1.97;;
6739;SDS011;3407;49.882;10.920;2023-04-24T15:23:58;3.10;;;2.20;;
6739;SDS011;3407;49.882;10.920;2023-04-24T15:28:53;4.13;;;2.10;;
6739;SDS011;3407;49.882;10.920;2023-04-24T15:33:49;2.70;;;2.50;;
6739;SDS011;3407;49.882;10.920;2023-04-24T15:38:45;2.23;;;2.03;;
6739;SDS011;3407;49.882;10.920;2023-04-24T15:43:41;2.50;;;2.30;;
6739;SDS011;3407;49.882;10.920;2023-04-24T15:48:36;3.73;;;2.30;;
6739;SDS011;3407;49.882;10.920;2023-04-24T15:53:33;3.50;;;2.57;;
6739;SDS011;3407;49.882;10.920;2023-04-24T15:58:29;2.63;;;2.43;;
6739;SDS011;3407;49.882;10.920;2023-04-24T16:03:24;2.43;;;2.00;;
6739;SDS011;3407;49.882;10.920;2023-04-24T16:08:20;2.90;;;2.60;;
6739;SDS011;3407;49.882;10.920;2023-04-24T16:13:16;2.50;;;2.30;;
6739;SDS011;3407;49.882;10.920;2023-04-24T16:18:12;2.23;;;2.03;;
6739;SDS011;3407;49.882;10.920;2023-04-24T16:23:08;2.10;;;1.90;;
6739;SDS011;3407;49.882;10.920;2023-04-24T16:28:04;1.93;;;1.80;;
6739;SDS011;3407;49.882;10.920;2023-04-24T16:32:59;2.90;;;1.80;;
6739;SDS011;3407;49.882;10.920;2023-04-24T16:37:55;2.30;;;2.10;;
6739;SDS011;3407;49.882;10.920;2023-04-24T16:42:50;3.63;;;3.33;;
6739;SDS011;3407;49.882;10.920;2023-04-24T16:47:46;3.40;;;2.67;;
6739;SDS011;3407;49.882;10.920;2023-04-24T16:52:42;3.30;;;2.20;;
6739;SDS011;3407;49.882;10.920;2023-04-24T16:57:37;2.53;;;2.33;;
6739;SDS011;3407;49.882;10.920;2023-04-24T17:02:33;2.73;;;2.30;;
6739;SDS011;3407;49.882;10.920;2023-04-24T17:07:29;3.07;;;2.53;;
6739;SDS011;3407;49.882;10.920;2023-04-24T17:12:25;3.20;;;2.90;;
6739;SDS011;3407;49.882;10.920;2023-04-24T17:17:21;3.47;;;3.00;;
6739;SDS011;3407;49.882;10.920;2023-04-24T17:22:17;4.43;;;3.67;;
6739;SDS011;3407;49.882;10.920;2023-04-24T17:27:12;6.47;;;3.47;;
6739;SDS011;3407;49.882;10.920;2023-04-24T17:32:08;5.20;;;3.43;;
6739;SDS011;3407;49.882;10.920;2023-04-24T17:37:04;3.43;;;3.13;;
6739;SDS011;3407;49.882;10.920;2023-04-24T17:41:59;3.57;;;3.27;;
6739;SDS011;3407;49.882;10.920;2023-04-24T17:46:56;4.53;;;3.60;;
6739;SDS011;3407;49.882;10.920;2023-04-24T17:51:51;3.30;;;3.00;;
6739;SDS011;3407;49.882;10.920;2023-04-24T17:56:47;6.10;;;3.80;;
6739;SDS011;3407;49.882;10.920;2023-04-24T18:01:43;5.63;;;4.57;;
6739;SDS011;3407;49.882;10.920;2023-04-24T18:06:38;4.03;;;3.63;;
6739;SDS011;3407;49.882;10.920;2023-04-24T18:11:34;5.00;;;3.77;;
6739;SDS011;3407;49.882;10.920;2023-04-24T18:16:29;4.43;;;3.90;;
6739;SDS011;3407;49.882;10.920;2023-04-24T18:21:25;5.63;;;4.43;;
6739;SDS011;3407;49.882;10.920;2023-04-24T18:26:22;4.70;;;4.30;;
6739;SDS011;3407;49.882;10.920;2023-04-24T18:31:17;4.70;;;4.30;;
6739;SDS011;3407;49.882;10.920;2023-04-24T18:36:14;7.57;;;5.73;;
6739;SDS011;3407;49.882;10.920;2023-04-24T18:41:09;4.30;;;3.93;;
6739;SDS011;3407;49.882;10.920;2023-04-24T18:46:05;3.57;;;3.23;;
6739;SDS011;3407;49.882;10.920;2023-04-24T18:51:00;3.63;;;3.33;;
6739;SDS011;3407;49.882;10.920;2023-04-24T18:55:56;5.10;;;4.07;;
6739;SDS011;3407;49.882;10.920;2023-04-24T19:00:51;4.97;;;3.93;;
6739;SDS011;3407;49.882;10.920;2023-04-24T19:05:47;5.90;;;4.30;;
6739;SDS011;3407;49.882;10.920;2023-04-24T19:10:43;6.07;;;5.50;;
6739;SDS011;3407;49.882;10.920;2023-04-24T19:15:38;8.30;;;5.33;;
6739;SDS011;3407;49.882;10.920;2023-04-24T19:20:34;5.50;;;4.43;;
6739;SDS011;3407;49.882;10.920;2023-04-24T19:25:29;5.10;;;4.43;;
6739;SDS011;3407;49.882;10.920;2023-04-24T19:30:25;4.90;;;4.00;;
6739;SDS011;3407;49.882;10.920;2023-04-24T19:35:21;6.87;;;5.30;;
6739;SDS011;3407;49.882;10.920;2023-04-24T19:40:16;6.00;;;4.97;;
6739;SDS011;3407;49.882;10.920;2023-04-24T19:45:12;7.23;;;5.80;;
6739;SDS011;3407;49.882;10.920;2023-04-24T19:50:07;5.37;;;4.87;;
6739;SDS011;3407;49.882;10.920;2023-04-24T19:55:04;5.13;;;4.63;;
6739;SDS011;3407;49.882;10.920;2023-04-24T19:59:59;7.70;;;5.87;;
6739;SDS011;3407;49.882;10.920;2023-04-24T20:04:55;5.20;;;4.70;;
6739;SDS011;3407;49.882;10.920;2023-04-24T20:09:50;5.43;;;4.87;;
6739;SDS011;3407;49.882;10.920;2023-04-24T20:14:46;5.70;;;4.97;;
6739;SDS011;3407;49.882;10.920;2023-04-24T20:19:42;5.77;;;4.70;;
6739;SDS011;3407;49.882;10.920;2023-04-24T20:24:38;5.90;;;5.10;;
6739;SDS011;3407;49.882;10.920;2023-04-24T20:29:34;5.33;;;4.50;;
6739;SDS011;3407;49.882;10.920;2023-04-24T20:34:30;5.40;;;4.57;;
6739;SDS011;3407;49.882;10.920;2023-04-24T20:39:26;5.93;;;5.27;;
6739;SDS011;3407;49.882;10.920;2023-04-24T20:44:21;5.90;;;5.30;;
6739;SDS011;3407;49.882;10.920;2023-04-24T20:49:20;7.77;;;4.97;;
6739;SDS011;3407;49.882;10.920;2023-04-24T20:54:19;5.47;;;4.77;;
6739;SDS011;3407;49.882;10.920;2023-04-24T20:59:17;6.00;;;4.93;;
6739;SDS011;3407;49.882;10.920;2023-04-24T21:04:13;5.10;;;4.60;;
6739;SDS011;3407;49.882;10.920;2023-04-24T21:09:09;4.80;;;3.93;;
6739;SDS011;3407;49.882;10.920;2023-04-24T21:14:05;6.23;;;4.40;;
6739;SDS011;3407;49.882;10.920;2023-04-24T21:19:01;5.97;;;4.10;;
6739;SDS011;3407;49.882;10.920;2023-04-24T21:23:56;5.07;;;4.50;;
6739;SDS011;3407;49.882;10.920;2023-04-24T21:28:52;5.10;;;4.60;;
6739;SDS011;3407;49.882;10.920;2023-04-24T21:33:47;5.13;;;4.37;;
6739;SDS011;3407;49.882;10.920;2023-04-24T21:38:43;4.70;;;4.03;;
6739;SDS011;3407;49.882;10.920;2023-04-24T21:43:38;5.03;;;4.43;;
6739;SDS011;3407;49.882;10.920;2023-04-24T21:48:34;4.83;;;3.90;;
6739;SDS011;3407;49.882;10.920;2023-04-24T21:53:30;5.63;;;5.03;;
6739;SDS011;3407;49.882;10.920;2023-04-24T21:58:25;4.20;;;3.80;;
6739;SDS011;3407;49.882;10.920;2023-04-24T22:03:21;4.70;;;4.23;;
6739;SDS011;3407;49.882;10.920;2023-04-24T22:08:16;5.47;;;4.30;;
6739;SDS011;3407;49.882;10.920;2023-04-24T22:13:12;6.40;;;4.87;;
6739;SDS011;3407;49.882;10.920;2023-04-24T22:18:07;4.60;;;4.20;;
6739;SDS011;3407;49.882;10.920;2023-04-24T22:23:03;6.33;;;4.53;;
6739;SDS011;3407;49.882;10.920;2023-04-24T22:27:58;4.33;;;3.93;;
6739;SDS011;3407;49.882;10.920;2023-04-24T22:32:54;5.63;;;4.30;;
6739;SDS011;3407;49.882;10.920;2023-04-24T22:37:53;5.37;;;4.13;;
6739;SDS011;3407;49.882;10.920;2023-04-24T22:42:49;7.50;;;4.80;;
6739;SDS011;3407;49.882;10.920;2023-04-24T22:47:45;6.40;;;4.70;;
6739;SDS011;3407;49.882;10.920;2023-04-24T22:52:40;5.93;;;4.70;;
6739;SDS011;3407;49.882;10.920;2023-04-24T22:57:38;6.90;;;4.60;;
6739;SDS011;3407;49.882;10.920;2023-04-24T23:02:34;6.93;;;4.73;;
6739;SDS011;3407;49.882;10.920;2023-04-24T23:07:29;5.63;;;4.97;;
6739;SDS011;3407;49.882;10.920;2023-04-24T23:12:25;5.60;;;5.07;;
6739;SDS011;3407;49.882;10.920;2023-04-24T23:17:21;7.50;;;4.90;;
6739;SDS011;3407;49.882;10.920;2023-04-24T23:22:16;7.00;;;5.40;;
6739;SDS011;3407;49.882;10.920;2023-04-24T23:27:12;6.73;;;5.57;;
6739;SDS011;3407;49.882;10.920;2023-04-24T23:32:08;7.37;;;5.83;;
6739;SDS011;3407;49.882;10.920;2023-04-24T23:37:03;5.70;;;4.80;;
6739;SDS011;3407;49.882;10.920;2023-04-24T23:42:00;6.93;;;5.00;;
6739;SDS011;3407;49.882;10.920;2023-04-24T23:46:56;5.53;;;4.97;;
6739;SDS011;3407;49.882;10.920;2023-04-24T23:51:52;5.20;;;4.70;;
6739;SDS011;3407;49.882;10.920;2023-04-24T23:56:48;5.80;;;5.20;;
